X  Stänga Metar väderdata för luftfart        EBOS Ostend-Bruges International Airport
Temperatur
1°C Temperatur
-1°C Daggpunkt
86% Fuktighet



Vind
9 KM/T
6 MPH
3 M/S
5 KTS



80°
Ö
Nuvarande omständigheter

Cloudy Molnig
Tryck 1018 (hPa) - 30.06 (inHg)
Synlighet 4 (mil) - 6 (km)
Flygplats
Flygplatskod EBOS

Plats: Ostend-Bruges International Airport
Distans: 60 (km)

Metar:
METAR EBOS 050120Z 08005KT 6000 OVC009 01/M01 Q1018 NOSIG

Tid: 05-12-2022 02:20 CET